Ergebnisliste vom: 06.01.2019 - Rollmopslauf Gro▀enhain2019 - 8 km

weitere Ergebnisse >>

Platz Pl.m Pl.w Stnr. Name,Vorname Verein Ak AKm AKw Endzeit RŘckst.
1 1   240 Kliemann, Jonas SC Riesa Triathlon e.V. mJugend 1   00:28:37 00:00:00
2 2   233 Jentzsch, Christian Triathlonverein Dresden M├Ąnner 1   00:29:23 00:00:46
3 3   280 Wartenberg, Jonas SG Motor Freital M├Ąnner 2   00:29:53 00:01:16
4 4   274 Sch├╝tzka, Georg LG TuS Weinb├Âhla M30-34 1   00:30:54 00:02:17
5 5   302 Schurig, Toni SC Riesa M├Ąnner 3   00:31:26 00:02:49
6 6   319 Kitsche, Marco Klipphausen M40-44 1   00:31:34 00:02:57
7 7   294 Sittner, Falk LG Ultralauf M35-39 1   00:31:41 00:03:04
8 8   321 Schwarzer, Roland Katzengebirgsl├Ąufer M30-34 2   00:32:02 00:03:25
9 9   287 Dworatzek, Dirk Citylauf-Verein Dresden M├Ąnner 4   00:32:13 00:03:36
10 10   318 Loreck, Franko Style4bike.de M30-34 3   00:32:16 00:03:39
11 11   305 Brodhuhn, Hubert LG Priestewitz M35-39 2   00:33:00 00:04:23
12 12   336 Papke, Torsten LG Priestewitz M30-34 4   00:33:23 00:04:46
13 13   243 Kretzschmar, Achim Holzhandel Ganzig M50-54 1   00:33:31 00:04:54
14 14   237 Kaubisch, Nico Team Erdinger Alkoholfrei Hirschfeld M├Ąnner 5   00:33:37 00:05:00
15   1 304 Beer, Jasmin SV Olympia Cottbus Frauen   1 00:33:45 00:05:08
16 15   234 Junghanns, Mario D├Âbelner SV Vorw├Ąrts M50-54 2   00:33:49 00:05:12
17   2 229 Hoffmann, Lisa-Marie SV Elbland Coswig Meissen wJugend   1 00:34:11 00:05:34
18 16   204 Bauer, Heiko D├Âbelner SV Vorw├Ąrts M45-49 1   00:34:22 00:05:45
19 17   260 Noack gen. Gr├Ąfe, Stefan LG TuS Weinb├Âhla M40-44 2   00:34:36 00:05:59
20 18   232 Jancker, Hans-Dieter SV Elbland Coswig-Mei├čen M65-69 1   00:34:43 00:06:06
21 19   329 Massek, Peter SC Riesa M40-44 3   00:35:18 00:06:41
22 20   257 Matz, J├╝rgen Citylauf-Verein Dresden M60-64 1   00:35:29 00:06:52
23 21   330 K├╝hn, Henry Koma Gera OCR M30-34 5   00:35:32 00:06:55
24 22   364 Zeiske , Enrico OS Sch├Ânfeld M40-44 4   00:35:48 00:07:11
25 23   210 Dewitz, Heiko ESV Lok D├Âbeln M55-59 1   00:35:53 00:07:16
26 24   282 Witt, Florian SV Chemie N├╝nchritz mJugend 2   00:35:55 00:07:18
27 25   244 K├╝mmel, Paul SV Motor Gro├čenhain mJugend 3   00:36:01 00:07:24
28 26   255 Mann, Daniel Mei├čen M40-44 5   00:36:04 00:07:27
29 27   347 Mutzke, Thomas Wei├čig a. Rasch├╝tz M40-44 6   00:36:08 00:07:31
30 28   308 Fleischer, Torsten Coswig M50-54 3   00:36:11 00:07:34
31 29   317 Thei├č, Torben Mitlaufgelegenheit Dresden M30-34 6   00:36:14 00:07:37
32 30   324 Rauschenbach, Georg Igelkopf-Runners Dresden M50-54 4   00:36:15 00:07:38
33 31   291 Kn├Âfel, Detlef Mei├čen M55-59 2   00:36:21 00:07:44
34 32   331 Kalwak, Marco SC Riesa Triathlon M45-49 2   00:36:28 00:07:51
35 33   325 Jahn, Thomas LG Priestewitz M35-39 3   00:36:34 00:07:57
36 34   334 Bransch, Ulli Citylauf- Verein Dresden M35-39 4   00:36:36 00:07:59
37 35   354 Preu├čner, Dirk Lauffreunde N├╝ne M45-49 3   00:36:42 00:08:05
38   3 224 Hesse, Peggy Lauff├Ârdergruppe Gruna W40-44   1 00:36:51 00:08:14
39 36   360 Thieme, Thomas TSG Markkleeberg von 1903 M60-64 2   00:36:55 00:08:18
40   4 344 Hammer, Dorothea SC Riesa W35-39   1 00:37:00 00:08:23
41 37   125 Sch├Ąfer, Julius SV Chemie N├╝nchritz mJugend 4   00:37:01 00:08:24
42 38   208 Berger, Victor TuS Coswig 1920 M65-69 2   00:37:05 00:08:28
43 39   246 K├╝mmel, Stephan LG Priestewitz M50-54 5   00:37:07 00:08:30
44 40   358 Falkenthal, Frank Gro├čenhain M45-49 4   00:37:11 00:08:34
45   5 271 R├╝ster, Claudia Team Streif W30-34   1 00:37:43 00:09:06
46 41   264 Ott, Robert Dresden M30-34 7   00:38:00 00:09:23
47 42   248 Kutschka von Rothenfels, Dominic Dresden mJugend 5   00:38:02 00:09:25
48 43   351 Scheibe, Robert Pulsen M30-34 8   00:38:06 00:09:29
49 44   333 Berger, Jack SV Elbland Coswig/Mei├čen M35-39 5   00:38:10 00:09:33
50 45   277 Thiel, Sebastian Gro├čenhain M30-34 9   00:38:14 00:09:37
51 46   346 Piontek, Bernd Zossen M55-59 3   00:38:16 00:09:39
52 47   261 Novak, Andr├ę Team Streif M45-49 5   00:38:19 00:09:42
53 48   201 Alexander, Frank D├Âbelner SV Vorw├Ąrts M60-64 3   00:38:22 00:09:45
54 49   281 Winter, J├╝rgen LG TuS Weinb├Âhla M70-74 1   00:38:23 00:09:46
55 50   285 Zwicke, Hans -j├╝rgen Schon Riesa M65-69 3   00:38:25 00:09:48
56 51   252 Liebscher, Rainer Freital M70-74 2   00:38:28 00:09:51
57 52   293 B├╝di, Karel SC Riesa M45-49 6   00:38:36 00:09:59
58 53   286 Wittwer, Frank K.u.F.Wittwer Dienstleistungsservice M50-54 6   00:38:52 00:10:15
59   6 211 Dewitz, Silke ESV Lok D├Âbeln W50-54   1 00:38:55 00:10:18
60 54   270 Ro├čberg, Hans-J├Ârg Dresden M60-64 4   00:39:07 00:10:30
61   7 314 Salzmann, Mandy SC Riesa Triathlon W35-39   2 00:39:08 00:10:31
62 55   352 Hanatschek, Rene LG Priestewitz M45-49 7   00:39:28 00:10:51
63 56   303 Beer, Carsten SV Wacker Komptendorf M50-54 7   00:39:31 00:10:54
64 57   236 Kaubisch, Frank Team Erdinger Alkoholfrei Hirschfeld M50-54 8   00:39:38 00:11:01
65 58   295 Joestel, Klaus Niederau M55-59 4   00:39:44 00:11:07
66 59   214 Feder, Hartmut SC Riesa M55-59 5   00:39:48 00:11:11
67 60   235 Kaubisch, Daniel Hirschfelder L├Ąufer TEA M├Ąnner 6   00:39:49 00:11:12
68 61   310 Rothe, Thomas Radeburg M60-64 5   00:39:59 00:11:22
69 62   226 Heyer, Ulrich Chemnitz M65-69 4   00:40:04 00:11:27
70 63   222 H├Ąu├čler, Norman GRV M├Ąnner 7   00:40:13 00:11:36
71 64   242 Koitzsch, Thomas FV Zabeltitz M45-49 8   00:40:15 00:11:38
72 65   299 Ruhland, J├Ârg Team Sport Ruscher M50-54 9   00:40:20 00:11:43
73   8 230 Hohenberg, Nicole LG TuS Weinb├Âhla W30-34   2 00:40:23 00:11:46
74   9 256 Matthes, Judith Triathlonverein Dresden W35-39   3 00:40:28 00:11:51
75 66   292 Detlefsen, Kay Gro├čsteinbach M40-44 7   00:40:30 00:11:53
76 67   289 Brandt, Remo SV Chemie N├╝nchritz M45-49 9   00:40:33 00:11:56
77 68   206 Behrisch, Siegmar Radeburg M65-69 5   00:40:44 00:12:07
78   10 355 Pre├čner, Kristina Lauffreunde N├╝ne W45-49   1 00:40:51 00:12:14
79 69   296 Karger, Sylvio Coswig M55-59 6   00:40:52 00:12:15
80   11 225 Heyer, Ina Chemnitz W35-39   4 00:40:54 00:12:17
81 70   320 Klemm, Alexander Mitlaufgelegenheit Dresden M35-39 6   00:40:55 00:12:18
82 71   238 Kim, Felix Die Tempolinse M35-39 7   00:41:03 00:12:26
83 72   348 Hofmann, Matthias Gr├Âditz M50-54 10   00:41:20 00:12:43
84 73   288 M├╝ller, Uwe Leisnig M45-49 10   00:41:31 00:12:54
85   12 263 Ott, Bianka Flitzschnecke W35-39   5 00:41:37 00:13:00
86   13 216 Gei├čler, Heike D├Âbeln W50-54   2 00:41:44 00:13:07
87   14 353 Te├čmann, Birgit LSV Pirna W50-54   3 00:42:23 00:13:46
88 74   283 Witt, Michael SV Chemie N├╝nchritz M40-44 8   00:42:24 00:13:47
89 75   298 Richter, Florian SV Motor Gro├čenhain M├Ąnner 8   00:42:28 00:13:51
90   15 359 Ruscher-Mohn, Monique Sport Ruscher W35-39   6 00:42:39 00:14:02
91 76   290 Gustke, Ulf TSV Radeburg M50-54 11   00:42:49 00:14:12
92 77   313 Schulz, Peter Runnig Riesa M35-39 8   00:42:56 00:14:19
93 78   254 Machill, Thomas LG TuS Weinb├Âhla M55-59 7   00:42:58 00:14:21
94   16 212 Dittrich, Claudia Citylauf-Verein Dresden W30-34   3 00:43:00 00:14:23
95 79   362 Greinke, Thomas SV Elbland Coswig Meissen e.V. M50-54 12   00:43:10 00:14:33
96   17 250 Kynast, Katrin Dresden W30-34   4 00:43:15 00:14:38
97 80   301 Hammer, Andre Mei├čen M40-44 9   00:43:26 00:14:49
98   18 342 Becker, Ines Beckham Strehla W45-49   2 00:43:43 00:15:06
99   19 276 Sturm, Karina DieBesten10 W40-44   2 00:43:45 00:15:08
100 81   269 R├Âhr, Egbert LSV Pirna M70-74 3   00:43:47 00:15:10
101 82   307 Wohs, Olaf TuS Coswig 1920 M50-54 13   00:43:57 00:15:20
102   20 245 K├╝mmel, Petra LG Priestewitz W50-54   4 00:44:04 00:15:27
103   21 266 Richter, Sabine SV Chemie N├╝nchritz W35-39   7 00:44:10 00:15:33
104   22 327 Mahnke, Sophie FV Zabeltitz wJugend   2 00:44:12 00:15:35
105 83   338 Krille, Steffen SV Wildenhain M55-59 8   00:44:22 00:15:45
106   23 209 Blaas, Aline SV Chemie N├╝nchritz Frauen   2 00:44:25 00:15:48
107 84   217 Gursinsky, Frank TSV Reichenberg M50-54 14   00:44:29 00:15:52
108 85   239 Klenke, Michael Gohlis M55-59 9   00:44:30 00:15:53
109 86   228 Hoffmann, Hagen Naunhof M50-54 15   00:44:32 00:15:55
110 87   259 M├╝ller, J├Ârg Intensivl├Ąufer M50-54 16   00:44:33 00:15:56
111   24 231 Irmscher, Antje Riesa W40-44   3 00:44:34 00:15:57
112   25 322 Rauschenbach, Birgit Igelkopf-Runners Dresden W50-54   5 00:44:40 00:16:03
113   26 275 Sittner, Karin Lauff├Ârdergruppe Gruna W35-39   8 00:45:03 00:16:26
114   27 316 Kothe, Melanie SV Scharfenberg W40-44   4 00:45:07 00:16:30
115 88   328 Goldbach, Thomas Bettenhaus Goldbach M45-49 11   00:45:15 00:16:38
116   28 284 Richter, Manuela LG Priestewitz W45-49   3 00:45:24 00:16:47
117   29 356 Dauer, Josephine Lauffreunde N├╝ne Frauen   3 00:45:35 00:16:58
118   30 220 H├Ąu├čler, Ines Gro├čenhain W50-54   6 00:45:46 00:17:09
119 89   323 Brucksch, Tilo Peritz M45-49 12   00:45:52 00:17:15
120   31 227 Hilse, Yvette Peritz W50-54   7 00:46:01 00:17:24
121 90   341 Tille, Peter Zittau M60-64 6   00:46:08 00:17:31
122 91   343 Henke, Tobias   M40-44 10   00:46:09 00:17:32
123 92   265 Raue, Stephan Team Erdinger Alkoholfrei M35-39 9   00:46:13 00:17:36
124 93   345 Henke, Stepahnie   M40-44 11   00:46:16 00:17:39
125   32 279 Veith, Doreen SV Scharfenberg W30-34   5 00:46:24 00:17:47
126 94   219 Hannig, Mike Flying Crutches M45-49 13   00:46:28 00:17:51
127 95   350 Breschke, Matthias Priestewitz M55-59 10   00:46:41 00:18:04
128 96   361 M├╝nch, Matthias Lommatzsch M45-49 14   00:46:57 00:18:20
129 97   223 Heinicke, Wallfried Oschatz/Thalheim M70-74 4   00:46:59 00:18:22
130 98   312 Salzmann, Michael Lommatzsch M40-44 12   00:47:00 00:18:23
131 99   337 R├Âsch, Carsten Mei├čen M50-54 17   00:47:07 00:18:30
132   33 258 Mi├čbach, Marita SC Riesa W55-59   1 00:47:09 00:18:32
133 100   309 Dutschmann, Andre   M45-49 15   00:47:34 00:18:57
134   34 297 Wolf, Denise LG Priestewitz W40-44   5 00:47:49 00:19:12
135   35 340 Gei├čler, Simone HSG Turbine Zittau W50-54   8 00:47:53 00:19:16
136   36 363 Schwind, Rita SV Elbland Coswig Meissen e.V. Frauen   4 00:47:54 00:19:17
137   37 306 Philipp-Wohs, Peggy TuS Coswig 1920 W45-49   4 00:48:18 00:19:41
138 101   311 Kriening, Henry   M60-64 7   00:48:38 00:20:01
139 102   262 Oeser, Konrad Friedewald M70-74 5   00:49:07 00:20:30
140   38 213 Feder, Anja SV Scharfenberg W35-39   9 00:49:10 00:20:33
141 103   335 Zimmermann, Peter Gro├čenhain M35-39 10   00:49:28 00:20:51
142 104   251 Lehmkuhle, Hans J├╝rgen SV Motor Grossenhain M65-69 6   00:49:30 00:20:53
143 105   332 Wick, Peter Weinb├Âhla M60-64 8   00:50:05 00:21:28
144   39 339 Krille, Sabine SV Wildenhain W55-59   2 00:50:32 00:21:55
145 106   326 Illige, Uwe Riesa M50-54 18   00:50:48 00:22:11
146 107   253 List, Hans-Joachim Ruhland M70-74 6   00:51:02 00:22:25
147   40 241 Kneschke, Uta SC Riesa W55-59   3 00:51:55 00:23:18
148 108   300 Martick, Siegfried SC Riesa M70-74 7   00:51:56 00:23:19
149   41 267 Riedel, Susann Priestewitz W35-39   10 00:53:02 00:24:25
150   42 249 Kutschka von Rothenfels, Ines Dresden W40-44   6 00:53:25 00:24:48
151   43 268 R├Âhr, Carina M├╝glitztal Frauen   5 00:54:43 00:26:06
152   44 221 H├Ąu├čler, Maren GRV Frauen   6 00:57:28 00:28:51
153 109   218 H├Ąhnel, Marvin SV Chemie N├╝nchritz mJugend 6   00:57:43 00:29:06
154   45 215 Feder, Ramona Mei├čen W55-59   4 00:59:52 00:31:15
(c) 1990-2012 Blue Wonder Sport Promotion - Andreas Burow - Zeitnahme & Auswertung - www.Triathlon-Service.de